Nearby METAR Reports

 

KSJC - San Jose, California, USA
Distance from station: NE 14km
Actualización: 29/11/2020 22:53
Parcialmente nuboso
Parcialmente nuboso
 Viento del varies
Viento: varies 7 km/h
Temperatura: 18°C
Rocío: -3°C
Humedad: 24%
Barómetro: 1020.7 hPa
Clouds: Parcialmente nuboso
Visibilidad: 16 km
Cloud details: Few Clouds 1524 m
Few Clouds 2743 m
Parcialmente nuboso 4267 m
2020/11/29 21:53 KSJC 292153Z VRB04KT 10SM FEW050 FEW090 SCT140 18/M03 A3014 RMK AO2 SLP206 T01781028
KNUQ - Moffett Nas/Mtn, California, USA
Distance from station: N 14km
Actualización: 15/11/2020 11:00
NOT Current
Despejado
Despejado
 Viento del calm
Viento: Calma
Temperatura: 6°C
Rocío: 5°C
Humedad: 93%
Barómetro: 1025.4 hPa
Clouds: Despejado
Visibilidad: 16 km
2020/11/15 10:00 KNUQ 151000Z AUTO 00000KT 10SM CLR 06/05 A3028 RMK AO2
 
KPAO - Palo Alto, California, USA
Distance from station: NNO 23km
Actualización: 29/11/2020 22:47
Few Clouds
Few Clouds
 Viento del N
Viento: N 7 km/h
Temperatura: 13°C
Rocío: 6°C
Humedad: 63%
Barómetro: 1021.3 hPa
Clouds: Few Clouds
Visibilidad: 16 km
Cloud details: Few Clouds 3658 m
2020/11/29 21:47 KPAO 292147Z 01004KT 10SM FEW120 13/06 A3016
KRHV - San Jose/Reid, California, USA
Distance from station: ENE 19km
Actualización: 29/11/2020 22:47
Despejado
Despejado
 Viento del calm
Viento: Calma
Temperatura: 18°C
Rocío: -1°C
Humedad: 28%
Barómetro: 1021 hPa
Clouds: Despejado
Visibilidad: 16 km
2020/11/29 21:47 KRHV 292147Z 00000KT 10SM SKC 18/M01 A3015
 
KOAK - Oakland, California, USA
Distance from station: NNO 50km
Actualización: 29/11/2020 22:53
Parcialmente nuboso
Parcialmente nuboso
 Viento del O
Viento: O 13 km/h
Temperatura: 16°C
Rocío: 3°C
Humedad: 42%
Barómetro: 1021.7 hPa
Clouds: Parcialmente nuboso
Visibilidad: 16 km
Cloud details: Few Clouds 4572 m
Parcialmente nuboso 7620 m
2020/11/29 21:53 KOAK 292153Z 28007KT 10SM FEW150 SCT250 16/03 A3017 RMK AO2 SLP215 T01610028
KSQL - San Carlos Airpo, California, USA
Distance from station: NO 34km
Actualización: 29/11/2020 22:47
Few Clouds
Few Clouds
 Viento del NNE
Viento: NNE 9 km/h
Temperatura: 14°C
Rocío: 7°C
Humedad: 63%
Barómetro: 1021.3 hPa
Clouds: Few Clouds
Visibilidad: 16 km
Cloud details: Few Clouds 6096 m
2020/11/29 21:47 KSQL 292147Z 03005KT 10SM FEW200 14/07 A3016
 
KSFO - San Francisco, California, USA
Distance from station: NO 49km
Actualización: 29/11/2020 22:56
Parcialmente nuboso
Parcialmente nuboso
 Viento del calm
Viento: Calma
Temperatura: 15°C
Rocío: 6°C
Humedad: 55%
Barómetro: 1021 hPa
Clouds: Parcialmente nuboso
Visibilidad: 16 km
Cloud details: Parcialmente nuboso 6096 m
2020/11/29 21:56 KSFO 292156Z 00000KT 10SM SCT200 15/06 A3015 RMK AO2 SLP210 T01500061
KE16 - San Martin, California, USA
Distance from station: ESE 43km
Actualización: 29/11/2020 22:55
Despejado
Despejado
 Viento del NNO
Viento: NNO 17 km/h
Temperatura: 19°C
Rocío: -2°C
Humedad: 24%
Barómetro: 1020.7 hPa
Clouds: Despejado
Visibilidad: 16 km
2020/11/29 21:55 KE16 292155Z AUTO 34009KT 10SM CLR 19/M02 A3014 RMK AO2 PWINO PNO
 
KWVI - Watsonville, California, USA
Distance from station: SSE 44km
Actualización: 29/11/2020 22:53
Despejado
Despejado
 Viento del varies
Viento: varies 9 km/h
Temperatura: 22°C
Rocío: -1°C
Humedad: 22%
Barómetro: 1020 hPa
Clouds: Despejado
Visibilidad: 16 km
2020/11/29 21:53 KWVI 292153Z AUTO VRB05KT 10SM CLR 22/M01 A3012 RMK AO2 SLP200 T02171011
KHAF - Half Moon Bay, California, USA
Distance from station: ONO 50km
Actualización: 29/11/2020 22:55
Despejado
Despejado
 Viento del OSO
Viento: OSO 6 km/h
Temperatura: 15°C
Rocío: 3°C
Humedad: 45%
Barómetro: 1021 hPa
Clouds: Despejado
Visibilidad: 14 km
2020/11/29 21:55 KHAF 292155Z AUTO 25003KT 9SM CLR 15/03 A3015 RMK AO2
 
KHWD - Hayward, California, USA
Distance from station: N 44km
Actualización: 29/11/2020 22:54
Despejado
Despejado
 Viento del ONO
Viento: ONO 11 km/h
Temperatura: 17°C
Rocío: 4°C
Humedad: 42%
Barómetro: 1021 hPa
Clouds: Despejado
Visibilidad: 16 km
2020/11/29 21:54 KHWD 292154Z 30006KT 10SM CLR 17/04 A3015 RMK AO2 SLP218 T01670044
KLVK - Livermore, California, USA
Distance from station: NNE 51km
Actualización: 29/11/2020 22:53
Despejado
Despejado
 Viento del E
Viento: E 20 km/h
Temperatura: 18°C
Rocío: -4°C
Humedad: 22%
Barómetro: 1021 hPa
Clouds: Despejado
Visibilidad: 16 km
2020/11/29 21:53 KLVK 292153Z 08011KT 10SM CLR 18/M04 A3015 RMK AO2 SLP209 T01831039